Time;durP1;ratioP1;P1;durP2;ratioP2;P2;SDS_P1;SDS_P2;PMS_P1;PMS_P2;Temp;Humidity;BMP_temperature;BMP_pressure;BME280_temperature;BME280_humidity;BME280_pressure;Samples;Min_cycle;Max_cycle;Signal;HPM_P1;HPM_P2
2021/06/06 00:01:43;;;;;;;44.47;22.92;;;;;;;15.36;89.36;99092.97;5059324;28;20066;-64
2021/06/06 00:04:15;;;;;;;43.35;24.48;;;;;;;15.34;88.97;99086.84;5060888;28;20017;-64
2021/06/06 00:06:40;;;;;;;42.85;24.17;;;;;;;15.36;89.20;99082.38;5047972;28;20098;-64
2021/06/06 00:09:11;;;;;;;44.90;25.30;;;;;;;15.29;89.17;99093.22;5046721;28;20033;-64
2021/06/06 00:11:40;;;;;;;49.42;26.67;;;;;;;15.30;89.85;99084.34;5045817;28;20079;-64
2021/06/06 00:14:09;;;;;;;47.83;24.83;;;;;;;15.32;89.97;99088.69;5045452;28;20024;-64
2021/06/06 00:16:38;;;;;;;46.92;24.85;;;;;;;15.29;89.56;99088.78;5045385;28;20021;-64
2021/06/06 00:19:06;;;;;;;51.92;26.88;;;;;;;15.30;89.96;99090.53;5047644;28;20010;-64
2021/06/06 00:21:34;;;;;;;44.58;25.63;;;;;;;15.26;89.50;99091.53;5048820;28;20017;-64
2021/06/06 00:23:59;;;;;;;51.10;25.45;;;;;;;15.32;89.49;99091.34;5048799;28;20376;-64
2021/06/06 00:26:25;;;;;;;47.20;26.17;;;;;;;15.32;89.66;99091.34;5048032;28;20083;-64
2021/06/06 00:28:51;;;;;;;52.03;25.70;;;;;;;15.35;89.50;99090.38;5048185;28;20032;-64
2021/06/06 00:31:17;;;;;;;48.65;26.75;;;;;;;15.33;89.49;99090.44;5048128;28;20209;-64
2021/06/06 00:33:43;;;;;;;52.25;27.15;;;;;;;15.30;89.31;99090.53;5048501;28;20021;-64
2021/06/06 00:36:09;;;;;;;49.38;26.63;;;;;;;15.33;89.44;99090.44;5048537;28;20190;-64
2021/06/06 00:38:35;;;;;;;55.40;30.52;;;;;;;15.37;89.96;99094.75;5047759;28;20028;-64
2021/06/06 00:41:02;;;;;;;50.60;26.65;;;;;;;15.37;89.44;99085.94;5047742;28;20021;-64
2021/06/06 00:43:28;;;;;;;60.17;29.33;;;;;;;15.29;89.83;99087.91;5048313;28;20029;-64
2021/06/06 00:45:54;;;;;;;60.38;29.98;;;;;;;15.29;89.51;99088.78;5046057;28;20064;-64
2021/06/06 00:48:20;;;;;;;55.30;29.10;;;;;;;15.28;89.28;99097.63;5048577;28;20025;-64
2021/06/06 00:50:48;;;;;;;54.83;30.25;;;;;;;15.27;89.77;99090.59;5047661;28;20025;-64
2021/06/06 00:53:28;;;;;;;65.25;33.60;;;;;;;15.34;89.28;99102.75;5047108;28;20036;-64
2021/06/06 00:55:54;;;;;;;65.93;33.42;;;;;;;15.24;89.83;99090.69;5047776;28;20301;-64
2021/06/06 00:58:20;;;;;;;60.35;31.33;;;;;;;15.30;89.68;99098.47;5047557;28;20024;-64
2021/06/06 01:00:51;;;;;;;59.75;32.15;;;;;;;15.26;89.41;99088.88;5060087;28;20027;-64
2021/06/06 01:03:18;;;;;;;69.85;32.90;;;;;;;15.21;89.84;99096.09;5059756;28;20013;-64
2021/06/06 01:05:53;;;;;;;66.47;35.13;;;;;;;15.18;90.05;99090.88;5059531;28;20045;-63
2021/06/06 01:08:20;;;;;;;73.50;35.65;;;;;;;15.21;89.82;99096.09;5053420;28;20025;-64
2021/06/06 01:10:53;;;;;;;68.25;33.08;;;;;;;15.23;90.01;99088.97;5049340;28;20083;-64
2021/06/06 01:13:22;;;;;;;71.80;35.85;;;;;;;15.23;90.04;99094.28;5047860;28;20088;-64
2021/06/06 01:15:54;;;;;;;78.10;36.83;;;;;;;15.21;90.31;99095.25;5048089;28;20016;-64
2021/06/06 01:18:24;;;;;;;;;;;;;;;15.26;90.12;99094.19;5047586;28;20028;-64
2021/06/06 01:21:16;;;;;;;75.88;36.67;;;;;;;15.20;90.33;99091.72;5045421;28;19912;-64
2021/06/06 01:24:28;;;;;;;78.77;37.57;;;;;;;15.19;90.44;99095.31;5044065;28;20040;-64
2021/06/06 01:27:02;;;;;;;70.25;32.55;;;;;;;15.21;90.25;99085.50;5045094;28;20245;-64
2021/06/06 01:29:35;;;;;;;80.20;36.80;;;;;;;15.21;90.26;99089.94;5060587;28;20328;-64
2021/06/06 01:32:12;;;;;;;65.85;33.88;;;;;;;15.20;90.45;99091.72;5047503;28;20256;-64
2021/06/06 01:34:42;;;;;;;74.07;37.78;;;;;;;15.18;90.14;99084.75;5047122;28;20044;-64
2021/06/06 01:37:13;;;;;;;75.20;37.55;;;;;;;15.16;90.69;99075.03;5046339;28;20022;-64
2021/06/06 01:39:45;;;;;;;79.63;38.03;;;;;;;15.18;90.58;99077.63;5047815;28;20018;-64
2021/06/06 01:42:17;;;;;;;66.88;35.55;;;;;;;15.25;90.39;99079.16;5047432;28;20056;-64
2021/06/06 01:44:48;;;;;;;76.68;37.08;;;;;;;15.28;89.88;99076.44;5047435;28;20041;-64
2021/06/06 01:47:18;;;;;;;80.43;38.38;;;;;;;15.22;90.11;99081.06;5047710;28;20298;-64
2021/06/06 01:49:54;;;;;;;73.93;35.97;;;;;;;15.24;90.38;99074.78;5046877;28;20033;-64
2021/06/06 01:52:22;;;;;;;73.18;36.85;;;;;;;15.23;90.21;99078.38;5047120;28;20017;-64
2021/06/06 01:54:49;;;;;;;63.13;34.28;;;;;;;15.23;89.96;99068.59;5045855;28;20253;-64
2021/06/06 01:57:20;;;;;;;71.38;35.40;;;;;;;15.29;89.83;99078.19;5047291;28;20093;-64
2021/06/06 01:59:50;;;;;;;76.23;36.83;;;;;;;15.23;90.37;99067.75;5047352;28;20328;-64
2021/06/06 02:02:16;;;;;;;75.75;37.28;;;;;;;15.25;90.25;99065.91;5047503;28;20462;-64
2021/06/06 02:04:43;;;;;;;78.80;37.83;;;;;;;15.28;90.23;99071.13;5046454;28;20025;-64
2021/06/06 02:07:14;;;;;;;67.85;35.35;;;;;;;15.26;90.49;99072.97;5047220;28;20025;-64
2021/06/06 02:10:04;;;;;;;68.95;35.67;;;;;;;15.33;90.07;99063.91;5058756;28;20025;-64
2021/06/06 02:12:31;;;;;;;71.30;36.90;;;;;;;15.25;90.46;99063.25;5059055;28;20047;-64
2021/06/06 02:14:57;;;;;;;66.82;36.78;;;;;;;15.29;90.35;99067.56;5046809;28;20305;-64
2021/06/06 02:17:30;;;;;;;68.07;35.03;;;;;;;15.30;90.05;99058.69;5048088;28;20024;-64
2021/06/06 02:19:58;;;;;;;69.63;35.78;;;;;;;15.30;90.12;99061.34;5058796;28;20024;-64
2021/06/06 02:22:27;;;;;;;65.93;34.58;;;;;;;15.34;89.82;99060.31;5058724;28;20020;-64
2021/06/06 02:24:53;;;;;;;66.32;34.22;;;;;;;15.38;89.73;99055.84;5063403;28;20056;-64
2021/06/06 02:27:34;;;;;;;68.07;33.45;;;;;;;15.40;89.52;99054.84;5063256;28;20049;-64
2021/06/06 02:30:50;;;;;;;65.97;35.60;;;;;;;15.32;89.85;99048.03;5063675;28;20051;-64
2021/06/06 02:33:26;;;;;;;64.75;34.08;;;;;;;15.35;89.49;99051.47;5063170;28;20350;-64
2021/06/06 02:35:59;;;;;;;61.40;33.45;;;;;;;15.39;89.59;99053.13;5063408;28;20075;-64
2021/06/06 02:38:27;;;;;;;72.15;35.38;;;;;;;15.40;89.36;99049.56;5063603;28;20365;-64
2021/06/06 02:41:16;;;;;;;76.25;34.33;;;;;;;15.40;89.57;99049.56;5063345;28;20025;-64
2021/06/06 02:43:47;;;;;;;65.53;32.00;;;;;;;15.39;89.32;99047.81;5059428;28;20079;-64
2021/06/06 02:46:16;;;;;;;67.40;34.75;;;;;;;15.36;89.61;99061.16;5059958;28;20029;-64
2021/06/06 02:48:55;;;;;;;69.18;35.33;;;;;;;15.30;89.96;99048.09;5057383;28;20017;-64
2021/06/06 02:51:23;;;;;;;66.43;34.22;;;;;;;15.34;89.92;99043.56;5059189;28;20028;-64
2021/06/06 02:54:21;;;;;;;57.83;32.83;;;;;;;15.36;89.59;99047.91;5058798;28;20070;-64
2021/06/06 02:56:51;;;;;;;58.85;32.90;;;;;;;15.37;89.36;99039.03;5046407;28;20036;-64
2021/06/06 02:59:41;;;;;;;64.88;33.50;;;;;;;15.37;89.85;99036.38;5045657;28;20029;-64
2021/06/06 03:02:14;;;;;;;66.68;34.00;;;;;;;15.35;89.76;99032.91;5045535;28;20048;-64
2021/06/06 03:04:48;;;;;;;63.25;32.78;;;;;;;15.35;89.73;99032.91;5045573;28;20029;-64
2021/06/06 03:07:20;;;;;;;62.70;32.28;;;;;;;15.32;89.65;99025.03;5049881;28;20088;-64
2021/06/06 03:09:46;;;;;;;;;;;;;;;15.36;89.63;99024.03;5047137;28;20025;-64
2021/06/06 03:12:15;;;;;;;70.38;32.85;;;;;;;15.38;89.54;99027.53;5046632;28;19905;-64
2021/06/06 03:14:43;;;;;;;63.53;33.63;;;;;;;15.38;89.27;99019.59;5046600;28;20028;-64
2021/06/06 03:17:16;;;;;;;60.30;33.13;;;;;;;15.40;89.47;99023.03;5046548;28;20029;-64
2021/06/06 03:19:46;;;;;;;63.45;32.45;;;;;;;15.41;89.39;99019.44;5046626;28;20037;-64
2021/06/06 03:22:17;;;;;;;57.92;31.65;;;;;;;15.39;89.54;99021.31;5046456;28;20084;-64
2021/06/06 03:24:48;;;;;;;65.03;33.15;;;;;;;15.39;89.65;99025.72;5046395;28;20053;-64
2021/06/06 03:27:15;;;;;;;64.95;33.30;;;;;;;15.43;89.44;99022.94;5046353;28;20347;-64
2021/06/06 03:30:07;;;;;;;64.57;34.15;;;;;;;15.43;89.44;99030.88;5046326;28;20087;-64
2021/06/06 03:32:36;;;;;;;63.57;34.20;;;;;;;15.41;89.47;99034.53;5045463;28;20047;-64
2021/06/06 03:35:04;;;;;;;49.67;29.45;;;;;;;15.41;89.37;99038.00;5046241;28;20067;-64
2021/06/06 03:37:30;;;;;;;62.78;32.67;;;;;;;15.39;89.74;99037.22;5046463;28;20251;-64
2021/06/06 03:39:56;;;;;;;61.97;32.65;;;;;;;15.41;89.67;99035.38;5046122;28;20087;-64
2021/06/06 03:42:23;;;;;;;57.53;30.25;;;;;;;15.40;89.78;99033.63;5046108;28;20032;-64
2021/06/06 03:44:48;;;;;;;67.53;34.05;;;;;;;15.39;89.74;99042.53;5048241;28;20087;-64
2021/06/06 03:47:14;;;;;;;65.07;30.88;;;;;;;15.38;89.97;99035.50;5049524;28;20360;-63
2021/06/06 03:49:39;;;;;;;65.68;34.05;;;;;;;15.40;89.88;99038.94;5049725;28;20017;-63
2021/06/06 03:52:06;;;;;;;62.17;32.53;;;;;;;15.40;89.86;99028.34;5049423;28;20029;-63
2021/06/06 03:54:31;;;;;;;59.22;31.60;;;;;;;15.38;89.74;99038.16;5048476;28;20014;-63
2021/06/06 03:56:57;;;;;;;48.08;28.00;;;;;;;15.39;89.81;99031.03;5061101;28;20122;-63
2021/06/06 03:59:23;;;;;;;61.70;31.98;;;;;;;15.41;89.85;99030.06;5061000;28;20075;-63
2021/06/06 04:01:51;;;;;;;60.40;33.67;;;;;;;15.42;89.76;99028.28;5058851;28;20032;-63
2021/06/06 04:04:17;;;;;;;62.85;33.15;;;;;;;15.41;90.06;99027.41;5047875;28;20017;-63
2021/06/06 04:06:42;;;;;;;58.17;31.45;;;;;;;15.40;90.02;99033.63;5049402;28;20031;-63
2021/06/06 04:09:08;;;;;;;56.15;30.13;;;;;;;15.43;89.96;99038.84;5048141;28;20292;-63
2021/06/06 04:11:35;;;;;;;62.72;31.50;;;;;;;15.39;89.83;99034.56;5048717;28;20021;-63
2021/06/06 04:14:01;;;;;;;59.58;31.13;;;;;;;15.40;89.82;99033.63;5048997;28;20021;-63
2021/06/06 04:16:26;;;;;;;62.75;32.97;;;;;;;15.45;89.65;99031.72;5048454;28;20025;-63
2021/06/06 04:18:52;;;;;;;55.90;32.10;;;;;;;15.40;89.96;99033.63;5047774;28;20021;-64
2021/06/06 04:21:21;;;;;;;55.80;31.77;;;;;;;15.43;89.91;99044.16;5048827;28;20064;-64
2021/06/06 04:23:46;;;;;;;49.33;29.85;;;;;;;15.45;89.83;99031.72;5047890;28;20313;-64
2021/06/06 04:26:12;;;;;;;57.03;30.63;;;;;;;15.47;89.54;99042.28;5048204;28;20065;-63
2021/06/06 04:28:38;;;;;;;57.78;32.83;;;;;;;15.49;89.65;99038.66;5048087;28;20025;-63
2021/06/06 04:31:04;;;;;;;60.10;31.38;;;;;;;15.52;89.44;99045.63;5049113;28;20024;-63
2021/06/06 04:33:29;;;;;;;55.35;30.30;;;;;;;15.52;89.49;99035.91;5050996;28;20056;-63
2021/06/06 04:35:56;;;;;;;64.53;35.30;;;;;;;15.47;90.05;99043.13;5050959;28;20026;-63
2021/06/06 04:38:25;;;;;;;62.33;33.50;;;;;;;15.47;90.01;99040.47;5050874;28;20025;-63
2021/06/06 04:40:51;;;;;;;61.53;31.48;;;;;;;15.46;89.82;99033.44;5050135;28;20025;-64
2021/06/06 04:43:17;;;;;;;65.32;33.47;;;;;;;15.42;89.91;99042.44;5048924;28;20028;-64
2021/06/06 04:45:43;;;;;;;66.82;33.83;;;;;;;15.47;89.63;99040.47;5048234;28;20033;-64
2021/06/06 04:48:14;;;;;;;68.65;34.20;;;;;;;15.49;89.68;99038.66;5048363;28;20021;-64
2021/06/06 04:50:40;;;;;;;59.80;33.60;;;;;;;15.49;89.54;99037.78;5060777;28;20035;-64
2021/06/06 04:53:07;;;;;;;56.10;30.85;;;;;;;15.52;89.49;99035.91;5059861;28;20029;-64
2021/06/06 04:55:33;;;;;;;73.13;36.83;;;;;;;15.52;89.08;99033.25;5060125;28;20025;-64
2021/06/06 04:57:59;;;;;;;73.30;34.97;;;;;;;15.56;89.31;99031.38;5060350;28;20324;-64
2021/06/06 05:00:29;;;;;;;64.10;31.48;;;;;;;15.57;89.13;99031.31;5059469;28;20212;-64
2021/06/06 05:02:54;;;;;;;62.55;32.97;;;;;;;15.61;88.97;99030.31;5047980;28;20029;-64
2021/06/06 05:05:21;;;;;;;72.10;33.22;;;;;;;15.63;88.66;99031.09;5045614;28;20095;-64
2021/06/06 05:07:53;;;;;;;64.80;32.25;;;;;;;15.61;88.66;99027.66;5044456;28;20021;-64
2021/06/06 05:10:21;;;;;;;65.72;33.90;;;;;;;15.62;89.05;99039.09;5044729;28;20017;-64
2021/06/06 05:12:47;;;;;;;61.38;32.95;;;;;;;15.58;89.04;99038.34;5044326;28;20021;-64
2021/06/06 05:15:13;;;;;;;66.20;34.00;;;;;;;15.61;88.78;99035.59;5044378;28;20087;-64
2021/06/06 05:17:39;;;;;;;69.63;34.65;;;;;;;15.59;88.95;99034.78;5044282;28;20025;-64
2021/06/06 05:20:06;;;;;;;67.20;32.78;;;;;;;15.56;89.26;99037.53;5044296;28;20060;-64
2021/06/06 05:22:32;;;;;;;72.88;33.55;;;;;;;15.59;88.98;99044.50;5044125;28;20207;-64
2021/06/06 05:24:58;;;;;;;65.07;36.20;;;;;;;15.57;89.43;99044.59;5047622;28;20078;-64
2021/06/06 05:27:24;;;;;;;66.72;35.17;;;;;;;15.53;89.34;99050.91;5047390;28;20045;-64
2021/06/06 05:29:49;;;;;;;72.95;35.83;;;;;;;15.54;89.39;99052.66;5046971;28;20328;-64
2021/06/06 05:32:15;;;;;;;72.95;36.28;;;;;;;15.53;89.53;99050.91;5047871;28;20059;-64
2021/06/06 05:34:42;;;;;;;77.20;35.17;;;;;;;15.51;89.68;99051.88;5046390;28;20045;-64
2021/06/06 05:37:09;;;;;;;72.45;35.22;;;;;;;15.50;89.82;99051.00;5048714;28;20017;-64
2021/06/06 05:39:35;;;;;;;75.38;36.33;;;;;;;15.55;89.50;99046.41;5047291;28;20312;-63
2021/06/06 05:42:00;;;;;;;73.47;34.45;;;;;;;15.55;89.59;99049.06;5047582;28;20022;-63
2021/06/06 05:44:26;;;;;;;64.18;33.78;;;;;;;15.59;89.21;99039.22;5047365;28;20048;-63
2021/06/06 05:46:52;;;;;;;73.32;34.20;;;;;;;15.55;89.55;99037.56;5048617;28;20332;-63
2021/06/06 05:49:17;;;;;;;75.50;35.40;;;;;;;15.49;89.66;99043.06;5046960;28;20021;-64
2021/06/06 05:51:42;;;;;;;72.25;34.75;;;;;;;15.51;89.69;99047.44;5042877;28;20316;-64
2021/06/06 05:54:08;;;;;;;73.63;36.72;;;;;;;15.58;89.56;99042.78;5043845;28;20027;-64
2021/06/06 05:56:33;;;;;;;75.47;36.08;;;;;;;15.54;89.73;99044.69;5053096;28;20085;-64
2021/06/06 05:58:59;;;;;;;69.43;34.75;;;;;;;15.57;89.52;99041.94;5059214;28;20096;-63
2021/06/06 06:01:24;;;;;;;62.25;32.47;;;;;;;15.62;89.03;99039.97;5060065;28;20017;-63
2021/06/06 06:03:49;;;;;;;79.43;38.65;;;;;;;15.60;89.11;99041.81;5049673;28;20067;-63
2021/06/06 06:06:15;;;;;;;82.97;38.78;;;;;;;15.56;89.31;99050.78;5043657;28;20033;-63
2021/06/06 06:08:44;;;;;;;77.03;37.92;;;;;;;15.62;89.05;99045.28;5053747;28;20020;-63
2021/06/06 06:11:13;;;;;;;82.97;37.20;;;;;;;15.69;89.19;99045.97;5058693;28;20025;-63
2021/06/06 06:13:39;;;;;;;84.25;38.72;;;;;;;15.74;89.29;99044.00;5046883;28;20088;-63
2021/06/06 06:16:07;;;;;;;82.60;40.33;;;;;;;15.64;89.50;99051.44;5058880;28;20021;-63
2021/06/06 06:18:34;;;;;;;88.10;38.67;;;;;;;15.64;90.14;99058.50;5047130;28;20100;-63
2021/06/06 06:21:00;;;;;;;85.55;39.45;;;;;;;15.65;89.72;99049.63;5048291;28;20040;-63
2021/06/06 06:23:26;;;;;;;82.97;40.05;;;;;;;15.72;88.96;99051.19;5048333;28;20029;-63
2021/06/06 06:25:52;;;;;;;83.10;38.67;;;;;;;15.73;89.43;99052.91;5046885;28;20042;-63
2021/06/06 06:28:18;;;;;;;88.22;39.72;;;;;;;15.71;89.88;99050.31;5048959;28;20021;-63
2021/06/06 06:30:44;;;;;;;88.75;41.03;;;;;;;15.76;89.63;99056.31;5047055;28;20343;-63
2021/06/06 06:33:09;;;;;;;79.93;38.63;;;;;;;15.86;88.43;99055.09;5046982;28;20263;-63
2021/06/06 06:35:36;;;;;;;78.60;36.80;;;;;;;15.96;87.85;99056.53;5047396;28;20017;-63
2021/06/06 06:38:03;;;;;;;81.00;38.72;;;;;;;16.01;87.79;99051.91;5048903;28;20029;-63
2021/06/06 06:40:29;;;;;;;86.70;39.80;;;;;;;15.98;88.46;99054.66;5049164;28;20047;-63
2021/06/06 06:42:55;;;;;;;84.75;38.58;;;;;;;15.97;88.04;99055.59;5050738;28;20025;-63
2021/06/06 06:45:31;;;;;;;88.47;39.83;;;;;;;16.01;87.84;99049.25;5049405;28;20025;-63
2021/06/06 06:48:08;;;;;;;91.65;39.97;;;;;;;16.11;86.70;99049.81;5050710;28;20021;-63
2021/06/06 06:50:34;;;;;;;92.28;40.83;;;;;;;16.18;86.25;99068.16;5054174;28;20021;-63
2021/06/06 06:53:00;;;;;;;87.45;40.42;;;;;;;16.06;86.12;99055.28;5050546;28;20037;-63
2021/06/06 06:55:27;;;;;;;90.30;40.15;;;;;;;16.05;86.77;99056.22;5050283;28;20373;-63
2021/06/06 06:57:55;;;;;;;85.75;38.53;;;;;;;16.05;86.33;99056.22;5050483;28;20209;-63
2021/06/06 07:00:28;;;;;;;89.88;41.55;;;;;;;16.14;86.89;99061.19;5050451;28;20320;-64
2021/06/06 07:02:53;;;;;;;90.95;40.83;;;;;;;16.21;85.89;99057.41;5050258;28;20212;-64
2021/06/06 07:05:19;;;;;;;82.13;38.67;;;;;;;16.37;86.27;99063.91;5051451;28;20119;-64
2021/06/06 07:07:44;;;;;;;78.65;37.25;;;;;;;16.48;85.67;99067.06;5050233;28;20025;-64
2021/06/06 07:10:13;;;;;;;84.88;39.53;;;;;;;16.63;85.64;99070.97;5050662;28;20025;-64
2021/06/06 07:12:38;;;;;;;85.70;39.60;;;;;;;16.78;85.39;99065.97;5050353;28;20021;-64
2021/06/06 07:15:09;;;;;;;71.20;36.35;;;;;;;16.83;83.52;99069.31;5050139;28;20020;-64
2021/06/06 07:17:35;;;;;;;67.85;32.85;;;;;;;16.99;83.61;99070.47;5053444;28;20049;-64
2021/06/06 07:20:02;;;;;;;78.15;35.28;;;;;;;17.09;83.48;99069.19;5050050;28;20217;-64
2021/06/06 07:22:27;;;;;;;67.30;33.60;;;;;;;17.07;82.38;99073.72;5060523;28;20020;-64
2021/06/06 07:24:53;;;;;;;59.88;31.85;;;;;;;17.12;81.70;99076.19;5061419;28;20056;-64
2021/06/06 07:27:18;;;;;;;68.28;33.58;;;;;;;17.07;83.21;99079.03;5057099;28;20088;-64
2021/06/06 07:29:45;;;;;;;64.80;32.53;;;;;;;17.09;82.41;99079.81;5050125;28;20332;-64
2021/06/06 07:32:11;;;;;;;61.45;32.67;;;;;;;17.07;83.51;99084.34;5049786;28;20018;-64
2021/06/06 07:34:36;;;;;;;59.22;29.75;;;;;;;16.98;81.72;99087.34;5049778;28;20024;-64
2021/06/06 07:37:06;;;;;;;64.32;29.98;;;;;;;16.96;83.29;99081.22;5050881;28;20039;-64
2021/06/06 07:39:31;;;;;;;56.08;28.58;;;;;;;17.07;81.17;99081.69;5050449;28;20013;-64
2021/06/06 07:41:58;;;;;;;53.10;28.25;;;;;;;16.96;80.63;99080.38;5048809;28;20020;-64
2021/06/06 07:44:24;;;;;;;58.50;31.23;;;;;;;17.08;82.31;99080.75;5058985;28;20387;-64
2021/06/06 07:46:52;;;;;;;52.90;29.17;;;;;;;17.19;81.93;99078.53;5061694;28;20017;-64
2021/06/06 07:49:18;;;;;;;52.22;26.23;;;;;;;17.40;79.40;99065.34;5060009;28;20055;-64
2021/06/06 07:51:43;;;;;;;50.40;26.58;;;;;;;17.25;80.40;99072.97;5054539;28;20087;-64
2021/06/06 07:54:09;;;;;;;54.08;26.65;;;;;;;17.28;80.97;99072.03;5049406;28;20333;-64
2021/06/06 07:56:35;;;;;;;45.42;25.30;;;;;;;17.20;81.17;99074.97;5048560;28;20089;-64
2021/06/06 07:59:01;;;;;;;45.75;26.17;;;;;;;17.25;80.27;99078.31;5049914;28;20033;-64
2021/06/06 08:01:26;;;;;;;57.38;27.95;;;;;;;17.09;79.88;99079.81;5049244;28;20029;-64
2021/06/06 08:03:52;;;;;;;47.17;26.58;;;;;;;17.13;80.63;99078.81;5053044;28;20041;-64
2021/06/06 08:06:18;;;;;;;49.95;27.75;;;;;;;17.14;79.98;99079.66;5059507;28;20022;-64
2021/06/06 08:08:43;;;;;;;46.53;24.52;;;;;;;17.30;80.26;99085.25;5061879;28;20040;-64
2021/06/06 08:11:10;;;;;;;52.72;25.55;;;;;;;17.34;79.47;99086.88;5060536;28;20016;-64
2021/06/06 08:13:36;;;;;;;50.78;25.65;;;;;;;17.48;78.80;99084.53;5062065;28;20088;-64
2021/06/06 08:16:03;;;;;;;48.33;25.58;;;;;;;17.40;78.82;99086.63;5059934;28;20017;-64
2021/06/06 08:18:32;;;;;;;52.13;26.85;;;;;;;17.39;80.41;99084.88;5059156;28;20029;-64
2021/06/06 08:21:03;;;;;;;51.35;24.83;;;;;;;17.41;80.87;99083.03;5065419;28;20029;-65
2021/06/06 08:23:28;;;;;;;56.45;25.48;;;;;;;17.64;78.63;99085.66;5065318;28;20025;-64
2021/06/06 08:25:56;;;;;;;43.35;22.27;;;;;;;17.63;76.65;99073.28;5065032;28;20033;-64
2021/06/06 08:28:22;;;;;;;44.28;24.13;;;;;;;17.67;77.31;99080.22;5065266;28;20025;-64
2021/06/06 08:30:53;;;;;;;44.47;24.90;;;;;;;17.91;77.76;99073.91;5065184;28;20043;-64
2021/06/06 08:33:24;;;;;;;45.03;24.67;;;;;;;18.03;77.57;99073.41;5065263;28;20087;-64
2021/06/06 08:35:53;;;;;;;50.05;24.85;;;;;;;18.24;76.97;99075.13;5065378;28;20357;-64
2021/06/06 08:38:19;;;;;;;46.75;24.35;;;;;;;18.27;76.31;99078.53;5063888;28;20254;-64
2021/06/06 08:40:47;;;;;;;40.60;21.85;;;;;;;18.17;77.07;99073.66;5064964;28;20021;-64
2021/06/06 08:43:13;;;;;;;43.47;22.83;;;;;;;18.01;77.74;99073.47;5064903;28;20025;-64
2021/06/06 08:45:48;;;;;;;41.25;22.73;;;;;;;17.82;77.65;99076.94;5064093;28;20032;-64
2021/06/06 08:48:17;;;;;;;44.15;22.38;;;;;;;17.83;77.07;99073.34;5055791;28;20084;-64
2021/06/06 08:50:51;;;;;;;45.15;24.20;;;;;;;17.64;78.86;99064.38;5044846;28;20071;-64
2021/06/06 08:53:33;;;;;;;40.63;22.08;;;;;;;17.86;78.29;99086.53;5044815;28;20335;-64
2021/06/06 08:56:20;;;;;;;41.63;23.00;;;;;;;17.84;79.25;99083.09;5045073;28;20017;-64
2021/06/06 08:59:29;;;;;;;39.90;21.48;;;;;;;17.94;78.62;99079.09;5044693;28;20044;-64
2021/06/06 09:02:03;;;;;;;46.30;22.95;;;;;;;17.88;79.10;99079.34;5042856;28;20144;-64
2021/06/06 09:04:35;;;;;;;35.35;21.10;;;;;;;17.91;77.28;99076.56;5026182;28;20102;-64
2021/06/06 09:07:09;;;;;;;43.28;22.20;;;;;;;17.98;77.30;99080.69;5049397;28;20036;-64
2021/06/06 09:09:40;;;;;;;36.75;20.88;;;;;;;18.02;77.19;99076.97;5052313;28;20059;-64
2021/06/06 09:12:09;;;;;;;41.50;20.80;;;;;;;18.11;77.71;99087.25;5052617;28;20028;-64
2021/06/06 09:14:35;;;;;;;37.30;19.50;;;;;;;18.22;77.83;99087.66;5054591;28;20099;-64
2021/06/06 09:17:07;;;;;;;34.33;19.20;;;;;;;18.30;77.17;99088.19;5062637;28;20102;-64
2021/06/06 09:20:00;;;;;;;34.42;19.25;;;;;;;18.60;76.74;99090.41;5062642;28;20036;-64
2021/06/06 09:22:37;;;;;;;35.30;17.00;;;;;;;18.71;74.58;99084.59;5053873;28;20105;-64
2021/06/06 09:25:27;;;;;;;27.45;17.23;;;;;;;18.81;74.95;99091.25;5044467;28;20264;-64
2021/06/06 09:28:10;;;;;;;29.35;17.70;;;;;;;18.91;74.85;99087.22;5042337;28;20052;-64
2021/06/06 09:30:37;;;;;;;29.73;16.85;;;;;;;18.88;75.33;99092.69;5042478;28;20113;-64
2021/06/06 09:33:07;;;;;;;28.35;16.23;;;;;;;19.01;74.61;99083.19;5043554;28;20029;-64
2021/06/06 09:35:36;;;;;;;24.65;13.98;;;;;;;19.01;73.42;99083.19;5050568;28;20013;-65
2021/06/06 09:38:18;;;;;;;24.98;14.23;;;;;;;19.20;71.63;99084.97;5050641;28;20017;-65
2021/06/06 09:40:46;;;;;;;24.45;13.77;;;;;;;19.16;72.48;99087.84;5048694;28;20063;-64
2021/06/06 09:43:31;;;;;;;17.25;11.73;;;;;;;19.25;71.95;99087.41;5043980;28;20329;-65
2021/06/06 09:46:15;;;;;;;17.92;11.15;;;;;;;19.12;70.73;99094.25;5046421;28;20218;-65
2021/06/06 09:48:43;;;;;;;20.02;12.43;;;;;;;18.96;71.91;99096.75;5053902;28;20024;-65
2021/06/06 09:51:30;;;;;;;23.58;12.48;;;;;;;18.97;73.66;99086.97;5047464;28;20032;-65
2021/06/06 09:54:10;;;;;;;19.38;11.63;;;;;;;18.89;74.63;99094.47;5049946;28;20024;-65
2021/06/06 09:56:36;;;;;;;21.17;12.05;;;;;;;18.70;72.63;99093.56;5059642;28;20013;-65
2021/06/06 09:59:11;;;;;;;17.80;11.38;;;;;;;18.89;73.06;99095.31;5059308;28;20017;-65
2021/06/06 10:01:47;;;;;;;16.13;10.80;;;;;;;18.70;71.68;99098.88;5051217;28;20017;-65
2021/06/06 10:04:33;;;;;;;16.90;10.95;;;;;;;18.88;71.64;99095.38;5057666;28;20021;-65
2021/06/06 10:07:14;;;;;;;15.05;10.20;;;;;;;19.05;71.57;99095.50;5047324;28;20228;-64
2021/06/06 10:09:48;;;;;;;14.23;9.10;;;;;;;19.15;71.06;99096.78;5047070;28;20092;-64
2021/06/06 10:12:22;;;;;;;16.35;9.07;;;;;;;19.23;68.72;99097.28;5048496;28;20272;-64
2021/06/06 10:14:56;;;;;;;17.17;8.95;;;;;;;19.41;68.83;99091.13;5048393;28;20018;-64
2021/06/06 10:17:35;;;;;;;13.50;8.95;;;;;;;19.53;68.90;99103.91;5050212;28;20053;-64
2021/06/06 10:20:10;;;;;;;14.80;8.52;;;;;;;19.53;69.15;99098.56;5050065;28;20021;-64
2021/06/06 10:22:41;;;;;;;14.40;7.93;;;;;;;19.64;64.97;99098.88;5053028;28;20047;-64
2021/06/06 10:25:16;;;;;;;11.23;7.80;;;;;;;19.74;66.80;99089.50;5056694;28;20400;-64
2021/06/06 10:28:08;;;;;;;15.30;9.25;;;;;;;19.67;68.85;99101.41;5072930;28;20047;-64
2021/06/06 10:31:00;;;;;;;11.15;8.40;;;;;;;19.67;65.79;99090.72;5087317;28;20032;-64
2021/06/06 10:33:34;;;;;;;14.75;8.98;;;;;;;19.89;67.64;99094.09;5086171;28;20084;-64
2021/06/06 10:36:01;;;;;;;15.18;9.65;;;;;;;19.73;67.17;99089.56;5079810;28;20013;-64
2021/06/06 10:38:28;;;;;;;15.13;9.52;;;;;;;19.37;70.03;99094.88;5050067;28;20032;-64
2021/06/06 10:40:59;;;;;;;14.38;10.50;;;;;;;19.15;69.10;99102.13;5053289;28;20291;-64
2021/06/06 10:43:24;;;;;;;16.42;10.27;;;;;;;18.96;70.54;99096.75;5055791;28;20025;-64
2021/06/06 10:46:16;;;;;;;16.83;10.00;;;;;;;19.01;69.68;99102.75;5052025;28;20025;-64
2021/06/06 10:48:50;;;;;;;22.58;11.10;;;;;;;18.97;69.26;99100.28;5060623;28;20209;-64
2021/06/06 10:51:37;;;;;;;14.50;9.65;;;;;;;18.91;70.41;99108.56;5056239;28;20016;-64
2021/06/06 10:54:25;;;;;;;16.13;9.68;;;;;;;18.98;69.81;99104.69;5059081;28;20213;-64
2021/06/06 10:56:59;;;;;;;13.43;8.52;;;;;;;19.06;69.25;99102.53;5054541;28;20261;-64
2021/06/06 10:59:46;;;;;;;18.00;8.57;;;;;;;19.00;68.33;99097.50;5062033;28;20056;-64
2021/06/06 11:02:36;;;;;;;13.75;8.80;;;;;;;19.18;68.04;99091.31;5062283;28;20091;-64
2021/06/06 11:05:22;;;;;;;12.73;8.13;;;;;;;19.13;69.27;99095.97;5049165;28;20021;-64
2021/06/06 11:07:48;;;;;;;11.73;7.90;;;;;;;19.28;69.08;99087.31;5063088;28;20017;-64
2021/06/06 11:10:16;;;;;;;12.52;7.70;;;;;;;19.40;68.56;99091.19;5052605;28;20028;-64
2021/06/06 11:12:43;;;;;;;12.77;7.82;;;;;;;19.57;65.69;99085.91;5060677;28;20017;-64
2021/06/06 11:15:39;;;;;;;12.98;7.88;;;;;;;19.64;66.51;99085.53;5061482;28;20040;-64
2021/06/06 11:18:11;;;;;;;12.52;7.65;;;;;;;19.69;65.76;99078.19;5051852;28;20020;-64
2021/06/06 11:20:56;;;;;;;12.05;6.35;;;;;;;19.66;66.91;99078.34;5048307;28;20225;-64
2021/06/06 11:23:47;;;;;;;14.63;8.55;;;;;;;19.40;68.77;99076.06;5055436;28;20150;-64
2021/06/06 11:26:21;;;;;;;12.20;7.97;;;;;;;19.34;68.60;99070.13;5059720;28;20040;-64
2021/06/06 11:28:48;;;;;;;12.55;8.52;;;;;;;19.15;69.13;99080.78;5050765;28;20028;-64
2021/06/06 11:31:31;;;;;;;11.57;7.40;;;;;;;19.25;68.28;99079.41;5060868;28;20024;-64
2021/06/06 11:34:17;;;;;;;13.30;8.95;;;;;;;19.03;70.06;99076.00;5057325;28;20200;-64
2021/06/06 11:36:45;;;;;;;13.07;8.07;;;;;;;19.24;70.31;99075.03;5061905;28;20021;-64